Time;durP1;ratioP1;P1;durP2;ratioP2;P2;SDS_P1;SDS_P2;PMS_P1;PMS_P2;Temp;Humidity;BMP_temperature;BMP_pressure;BME280_temperature;BME280_humidity;BME280_pressure;Samples;Min_cycle;Max_cycle;Signal;HPM_P1;HPM_P2
2021/08/26 00:00:40;;;;;;;;;;;;;;;-142.75;92.74;76938.41;4954488;28;19922;-78
2021/08/26 00:05:53;;;;;;;;;;;;;;;-142.75;92.50;76936.44;4955438;29;19961;-80
2021/08/26 00:08:19;;;;;;;;;;;;;;;-142.75;92.39;76930.53;5021367;28;19946;-78
2021/08/26 00:10:45;;;;;;;;;;;;;;;-142.75;92.46;76938.41;4954904;28;19996;-78
2021/08/26 00:13:11;;;;;;;;;;;;;;;-142.75;92.42;76938.41;5021561;28;19949;-78
2021/08/26 00:15:39;;;;;;;;;;;;;;;-142.75;92.09;76942.34;4955050;28;19968;-78
2021/08/26 00:18:04;;;;;;;;;;;;;;;-142.75;91.98;76930.53;4955245;29;19984;-79
2021/08/26 00:20:29;;;;;;;;;;;;;;;-142.75;91.92;76940.38;5021280;28;19941;-78
2021/08/26 00:22:55;;;;;;;;;;;;;;;-142.75;91.73;76944.31;5020715;28;19914;-79
2021/08/26 00:25:20;;;;;;;;;;;;;;;-142.75;91.72;76948.25;5021211;28;19918;-79
2021/08/26 00:27:46;;;;;;;;;;;;;;;-142.75;91.54;76952.19;4955195;28;19914;-78
2021/08/26 00:30:11;;;;;;;;;;;;;;;-142.75;91.40;76952.19;4954394;28;19925;-78
2021/08/26 00:32:36;;;;;;;;;;;;;;;-142.75;91.29;76954.16;4955433;29;19937;-78
2021/08/26 00:35:02;;;;;;;;;;;;;;;-142.75;91.19;76960.06;5022008;28;20383;-79
2021/08/26 00:37:27;;;;;;;;;;;;;;;-142.75;90.98;76956.13;5022164;28;19921;-79
2021/08/26 00:39:52;;;;;;;;;;;;;;;-142.75;91.03;76950.22;4955846;28;19948;-77
2021/08/26 00:42:18;;;;;;;;;;;;;;;-142.75;90.92;76948.25;4955869;28;19914;-78
2021/08/26 00:44:43;;;;;;;;;;;;;;;-142.75;91.05;76940.38;4955779;28;20280;-78
2021/08/26 00:47:09;;;;;;;;;;;;;;;-142.75;91.28;76936.44;5021740;28;20296;-78
2021/08/26 00:49:34;;;;;;;;;;;;;;;-142.75;91.52;76934.47;4955687;28;20316;-78
2021/08/26 00:52:00;;;;;;;;;;;;;;;-142.75;91.78;76934.47;4955910;28;20017;-78
2021/08/26 00:54:25;;;;;;;;;;;;;;;-142.75;91.88;76930.53;5022470;28;19915;-78
2021/08/26 00:56:50;;;;;;;;;;;;;;;-142.75;91.69;76918.72;5022600;28;19976;-78
2021/08/26 00:59:15;;;;;;;;;;;;;;;-142.75;91.77;76922.66;4955687;28;19964;-77
2021/08/26 01:01:46;;;;;;;;;;;;;;;-142.75;92.05;76918.72;4955459;28;20040;-79
2021/08/26 01:04:14;;;;;;;;;;;;;;;-142.75;92.14;76912.81;4955806;28;20013;-79
2021/08/26 01:06:46;;;;;;;;;;;;;;;-142.75;92.02;76910.84;5021993;28;19918;-77
2021/08/26 01:09:13;;;;;;;;;;;;;;;-142.75;92.02;76912.81;4955485;28;20402;-78
2021/08/26 01:11:41;;;;;;;;;;;;;;;-142.75;91.92;76912.81;4954023;28;19914;-78
2021/08/26 01:14:09;;;;;;;;;;;;;;;-142.75;91.74;76918.72;4955388;28;19922;-79
2021/08/26 01:16:38;;;;;;;;;;;;;;;-142.75;91.41;76920.69;5020196;28;20379;-78
2021/08/26 01:19:03;;;;;;;;;;;;;;;-142.75;90.74;76916.75;5019970;28;19918;-78
2021/08/26 01:21:29;;;;;;;;;;;;;;;-142.75;89.72;76916.75;4953195;28;19976;-81
2021/08/26 01:23:56;;;;;;;;;;;;;;;-142.75;89.32;76906.91;5019837;28;19914;-78
2021/08/26 01:26:57;;;;;;;;;;;;;;;-142.75;88.33;76910.84;4954121;28;20273;-78
2021/08/26 01:29:24;;;;;;;;;;;;;;;-142.75;86.85;76904.94;4976769;28;19925;-79
2021/08/26 01:31:49;;;;;;;;;;;;;;;-142.75;85.54;76901.00;5007512;28;19919;-80
2021/08/26 01:34:15;;;;;;;;;;;;;;;-142.75;84.17;76893.13;4952949;28;19969;-80
2021/08/26 01:36:41;;;;;;;;;;;;;;;-142.75;83.81;76893.13;4953826;28;19921;-79
2021/08/26 01:39:07;;;;;;;;;;;;;;;-142.75;82.63;76889.19;5019853;28;19960;-78
2021/08/26 01:41:40;;;;;;;;;;;;;;;-142.75;79.97;76893.13;4953059;29;20009;-78
2021/08/26 01:44:05;;;;;;;;;;;;;;;-142.75;79.24;76889.19;4953228;29;20408;-79
2021/08/26 01:46:30;;;;;;;;;;;;;;;-142.75;79.93;76885.25;4953498;28;19914;-78
2021/08/26 01:48:56;;;;;;;;;;;;;;;-142.75;79.43;76895.09;4953622;28;19960;-80
2021/08/26 01:51:21;;;;;;;;;;;;;;;-142.75;79.35;76901.00;5019311;28;19918;-79
2021/08/26 01:53:46;;;;;;;;;;;;;;;-142.75;78.62;76912.81;4952976;28;19953;-80
2021/08/26 01:56:11;;;;;;;;;;;;;;;-142.75;77.92;76914.78;5019161;28;19921;-79
2021/08/26 01:58:36;;;;;;;;;;;;;;;-142.75;77.60;76914.78;4952791;28;19926;-79
2021/08/26 02:01:02;;;;;;;;;;;;;;;-142.75;77.29;76914.78;4952647;28;19914;-79
2021/08/26 02:03:27;;;;;;;;;;;;;;;-142.75;78.05;76922.66;5018835;28;19915;-79
2021/08/26 02:05:52;;;;;;;;;;;;;;;-142.75;78.29;76924.63;5018796;28;19921;-79
2021/08/26 02:08:17;;;;;;;;;;;;;;;-142.75;77.49;76924.63;5018645;28;19921;-79
2021/08/26 02:10:42;;;;;;;;;;;;;;;-142.75;77.06;76924.63;5018306;28;19961;-79
2021/08/26 02:13:08;;;;;;;;;;;;;;;-142.75;77.11;76918.72;5018476;28;19957;-79
2021/08/26 02:15:33;;;;;;;;;;;;;;;-142.75;77.32;76922.66;4952547;28;19914;-79
2021/08/26 02:17:58;;;;;;;;;;;;;;;-142.75;76.71;76928.56;5018846;28;19960;-79
2021/08/26 02:20:24;;;;;;;;;;;;;;;-142.75;77.01;76928.56;5018308;28;20280;-79
2021/08/26 02:22:49;;;;;;;;;;;;;;;-142.75;76.93;76932.50;4952686;29;20438;-79
2021/08/26 02:25:14;;;;;;;;;;;;;;;-142.75;77.11;76914.78;5019126;28;19914;-80
2021/08/26 02:27:39;;;;;;;;;;;;;;;-142.75;75.99;76922.66;5018553;28;19922;-79
2021/08/26 02:30:06;;;;;;;;;;;;;;;-142.75;76.31;76926.59;4951759;28;19946;-80
2021/08/26 02:32:31;;;;;;;;;;;;;;;-142.75;75.90;76924.63;5018106;28;19918;-79
2021/08/26 02:34:57;;;;;;;;;;;;;;;-142.75;75.91;76924.63;4953381;28;20315;-79
2021/08/26 02:37:22;;;;;;;;;;;;;;;-142.75;76.43;76930.53;4952244;28;19914;-79
2021/08/26 02:39:47;;;;;;;;;;;;;;;-142.75;76.72;76936.44;4952312;28;19919;-80
2021/08/26 02:42:12;;;;;;;;;;;;;;;-142.75;77.09;76928.56;4952670;28;19914;-79
2021/08/26 02:44:38;;;;;;;;;;;;;;;-142.75;76.75;76922.66;4953006;28;20334;-79
2021/08/26 02:47:03;;;;;;;;;;;;;;;-142.75;77.04;76930.53;5017813;28;19914;-79
2021/08/26 02:49:28;;;;;;;;;;;;;;;-142.75;76.78;76936.44;4953089;28;20014;-79
2021/08/26 02:51:53;;;;;;;;;;;;;;;-142.75;76.80;76928.56;5018184;28;19967;-79
2021/08/26 02:54:18;;;;;;;;;;;;;;;-142.75;75.55;76920.69;5019503;28;19914;-77
2021/08/26 02:56:43;;;;;;;;;;;;;;;-142.75;75.42;76916.75;4952938;28;20580;-78
2021/08/26 02:59:09;;;;;;;;;;;;;;;-142.75;75.03;76932.50;4952763;28;19922;-79
2021/08/26 03:01:34;;;;;;;;;;;;;;;-142.75;74.57;76932.50;5018611;28;19930;-78
2021/08/26 03:03:59;;;;;;;;;;;;;;;-142.75;74.37;76926.59;4952573;28;20292;-80
2021/08/26 03:06:24;;;;;;;;;;;;;;;-142.75;73.80;76928.56;4952436;28;19976;-79
2021/08/26 03:08:49;;;;;;;;;;;;;;;-142.75;73.29;76934.47;5018955;28;20000;-79
2021/08/26 03:11:15;;;;;;;;;;;;;;;-142.75;73.04;76932.50;4986579;22;20334;-79
2021/08/26 03:13:40;;;;;;;;;;;;;;;-142.75;72.18;76928.56;4971724;28;19937;-78
2021/08/26 03:16:06;;;;;;;;;;;;;;;-142.75;71.40;76934.47;4969292;28;20017;-79
2021/08/26 03:18:31;;;;;;;;;;;;;;;-142.75;71.69;76942.34;4972809;28;19920;-78
2021/08/26 03:20:57;;;;;;;;;;;;;;;-142.75;71.79;76936.44;4973042;28;19914;-82
2021/08/26 03:23:22;;;;;;;;;;;;;;;-142.75;71.44;76952.19;4971615;28;19921;-79
2021/08/26 03:25:47;;;;;;;;;;;;;;;-142.75;71.83;76960.06;5038013;28;20354;-79
2021/08/26 03:28:13;;;;;;;;;;;;;;;-142.75;71.58;76952.19;4972879;28;19917;-81
2021/08/26 03:30:39;;;;;;;;;;;;;;;-142.75;70.65;76932.50;4971350;28;19914;-80
2021/08/26 03:33:04;;;;;;;;;;;;;;;-142.75;71.20;76932.50;5039380;28;19953;-79
2021/08/26 03:35:29;;;;;;;;;;;;;;;-142.75;71.17;76924.63;4971749;28;19968;-79
2021/08/26 03:37:54;;;;;;;;;;;;;;;-142.75;72.05;76932.50;5040129;28;19918;-78
2021/08/26 03:40:19;;;;;;;;;;;;;;;-142.75;71.87;76938.41;5039064;28;20328;-79
2021/08/26 03:42:45;;;;;;;;;;;;;;;-142.75;72.10;76944.31;4972615;28;19918;-77
2021/08/26 03:45:10;;;;;;;;;;;;;;;-142.75;72.09;76944.31;4977711;28;19913;-78
2021/08/26 03:47:35;;;;;;;;;;;;;;;-142.75;71.95;76944.31;4991098;28;19914;-78
2021/08/26 03:50:01;;;;;;;;;;;;;;;-142.75;72.77;76940.38;4992429;28;20428;-77
2021/08/26 03:52:26;;;;;;;;;;;;;;;-142.75;72.82;76940.38;5059413;28;19922;-78
2021/08/26 03:54:51;;;;;;;;;;;;;;;-142.75;72.93;76934.47;5060805;28;19921;-78
2021/08/26 03:57:16;;;;;;;;;;;;;;;-142.75;72.94;76934.47;5060588;28;19914;-78
2021/08/26 03:59:41;;;;;;;;;;;;;;;-142.75;72.97;76940.38;4994659;28;19940;-79
2021/08/26 04:02:06;;;;;;;;;;;;;;;-142.75;72.85;76942.34;5063002;28;20010;-79
2021/08/26 04:04:32;;;;;;;;;;;;;;;-142.75;73.43;76950.22;5063753;28;19961;-78
2021/08/26 04:06:57;;;;;;;;;;;;;;;-142.75;73.96;76942.34;4996846;28;20286;-77
2021/08/26 04:09:22;;;;;;;;;;;;;;;-142.75;74.23;76936.44;5061874;28;19921;-78
2021/08/26 04:11:47;;;;;;;;;;;;;;;-142.75;74.28;76936.44;5062613;28;19913;-78
2021/08/26 04:14:12;;;;;;;;;;;;;;;-142.75;73.90;76936.44;4996873;28;19957;-77
2021/08/26 04:16:38;;;;;;;;;;;;;;;-142.75;73.85;76936.44;5063484;28;20294;-78
2021/08/26 04:19:03;;;;;;;;;;;;;;;-142.75;74.39;76940.38;4995059;28;20294;-78
2021/08/26 04:21:28;;;;;;;;;;;;;;;-142.75;74.39;76936.44;4996312;28;20033;-78
2021/08/26 04:23:53;;;;;;;;;;;;;;;-142.75;74.87;76942.34;4995128;28;20062;-80
2021/08/26 04:26:18;;;;;;;;;;;;;;;-142.75;74.87;76944.31;4993287;28;19914;-79
2021/08/26 04:28:43;;;;;;;;;;;;;;;-142.75;74.63;76942.34;4994919;28;19914;-78
2021/08/26 04:31:09;;;;;;;;;;;;;;;-142.75;75.13;76946.28;4994416;28;19913;-78
2021/08/26 04:33:34;;;;;;;;;;;;;;;-142.75;76.19;76946.28;4995530;28;19921;-79
2021/08/26 04:35:59;;;;;;;;;;;;;;;-142.75;77.37;76956.13;5060988;28;19914;-78
2021/08/26 04:38:24;;;;;;;;;;;;;;;-142.75;78.12;76958.09;4994011;28;19917;-78
2021/08/26 04:40:49;;;;;;;;;;;;;;;-142.75;78.61;76944.31;4994097;28;19914;-78
2021/08/26 04:43:15;;;;;;;;;;;;;;;-142.75;79.08;76944.31;4996165;28;19985;-79
2021/08/26 04:45:40;;;;;;;;;;;;;;;-142.75;79.30;76948.25;5062288;28;19960;-78
2021/08/26 04:48:05;;;;;;;;;;;;;;;-142.75;79.11;76954.16;5062478;28;20393;-78
2021/08/26 04:50:30;;;;;;;;;;;;;;;-142.75;79.07;76944.31;4993925;28;19920;-78
2021/08/26 04:52:56;;;;;;;;;;;;;;;-142.75;79.14;76946.28;5061836;28;19929;-79
2021/08/26 04:55:21;;;;;;;;;;;;;;;-142.75;79.20;76940.38;5062081;28;19921;-78
2021/08/26 04:57:46;;;;;;;;;;;;;;;-142.75;78.77;76936.44;4995032;28;20347;-78
2021/08/26 05:00:11;;;;;;;;;;;;;;;-142.75;78.75;76930.53;5060630;28;19925;-78
2021/08/26 05:02:37;;;;;;;;;;;;;;;-142.75;77.68;76928.56;5061733;28;19949;-78
2021/08/26 05:05:02;;;;;;;;;;;;;;;-142.75;77.50;76922.66;4994420;28;19921;-79
2021/08/26 05:07:27;;;;;;;;;;;;;;;-142.75;77.20;76920.69;5061825;28;19920;-79
2021/08/26 05:09:53;;;;;;;;;;;;;;;-142.75;76.81;76918.72;5061352;28;19914;-79
2021/08/26 05:12:18;;;;;;;;;;;;;;;-142.75;76.00;76914.78;4995008;28;20004;-78
2021/08/26 05:14:43;;;;;;;;;;;;;;;-142.75;75.82;76916.75;5061768;28;19937;-78
2021/08/26 05:17:08;;;;;;;;;;;;;;;-142.75;76.10;76920.69;5061384;28;19920;-78
2021/08/26 05:19:34;;;;;;;;;;;;;;;-142.75;75.43;76924.63;4993044;28;20573;-80
2021/08/26 05:22:00;;;;;;;;;;;;;;;-142.75;74.66;76920.69;5062181;28;20030;-78
2021/08/26 05:24:25;;;;;;;;;;;;;;;-142.75;73.75;76918.72;4993931;28;19917;-79
2021/08/26 05:26:50;;;;;;;;;;;;;;;-142.75;72.36;76918.72;5062942;28;20255;-79
2021/08/26 05:29:15;;;;;;;;;;;;;;;-142.75;72.88;76914.78;4993865;28;19920;-78
2021/08/26 05:31:40;;;;;;;;;;;;;;;-142.75;71.12;76893.13;5061459;28;19933;-78
2021/08/26 05:34:06;;;;;;;;;;;;;;;-142.75;71.04;76889.19;4993634;28;19914;-78
2021/08/26 05:36:31;;;;;;;;;;;;;;;-142.75;70.12;76883.28;5060040;28;19965;-78
2021/08/26 05:38:56;;;;;;;;;;;;;;;-142.75;69.41;76877.38;4993292;28;19945;-77
2021/08/26 05:41:21;;;;;;;;;;;;;;;-142.75;69.51;76877.38;4993344;28;19955;-79
2021/08/26 05:43:46;;;;;;;;;;;;;;;-142.75;69.23;76875.41;5061362;28;19967;-78
2021/08/26 05:46:11;;;;;;;;;;;;;;;-142.75;69.84;76875.41;4993970;28;19914;-79
2021/08/26 05:48:37;;;;;;;;;;;;;;;-142.75;68.78;76875.41;4993800;28;19914;-79
2021/08/26 05:51:02;;;;;;;;;;;;;;;-142.75;68.33;76871.47;4993923;28;19914;-78
2021/08/26 05:53:27;;;;;;;;;;;;;;;-142.75;68.85;76865.56;5060078;28;19913;-78
2021/08/26 05:55:53;;;;;;;;;;;;;;;-142.75;69.13;76867.53;4984628;28;19914;-80
2021/08/26 05:58:18;;;;;;;;;;;;;;;-142.75;69.59;76865.56;4973783;28;19946;-78
2021/08/26 06:00:43;;;;;;;;;;;;;;;-142.75;69.63;76851.78;4971749;28;19918;-79
2021/08/26 06:03:08;;;;;;;;;;;;;;;-142.75;68.16;76849.81;4973052;28;19914;-78
2021/08/26 06:05:34;;;;;;;;;;;;;;;-142.75;68.89;76853.75;4972928;28;19974;-78
2021/08/26 06:07:59;;;;;;;;;;;;;;;-142.75;69.24;76849.81;5040254;28;19952;-79
2021/08/26 06:10:24;;;;;;;;;;;;;;;-142.75;68.79;76845.88;4972385;28;19918;-79
2021/08/26 06:12:49;;;;;;;;;;;;;;;-142.75;69.40;76834.06;4972601;28;19914;-77
2021/08/26 06:15:15;;;;;;;;;;;;;;;-142.75;68.43;76832.09;5040022;28;19917;-78
2021/08/26 06:17:40;;;;;;;;;;;;;;;-142.75;67.53;76830.13;4973265;28;20399;-79
2021/08/26 06:20:07;;;;;;;;;;;;;;;-142.75;68.47;76822.25;4971981;28;20000;-80
2021/08/26 06:22:32;;;;;;;;;;;;;;;-142.75;66.60;76828.16;4973557;28;20355;-79
2021/08/26 06:24:57;;;;;;;;;;;;;;;-142.75;68.33;76822.25;4972602;28;19914;-79
2021/08/26 06:27:22;;;;;;;;;;;;;;;-142.75;67.05;76828.16;5038094;28;19922;-79
2021/08/26 06:29:48;;;;;;;;;;;;;;;-142.75;67.12;76822.25;4980187;28;19913;-77
2021/08/26 06:32:13;;;;;;;;;;;;;;;-142.75;67.53;76814.38;4991965;28;20278;-78
2021/08/26 06:34:38;;;;;;;;;;;;;;;-142.75;67.14;76810.44;5059963;28;19913;-78
2021/08/26 06:37:03;;;;;;;;;;;;;;;-142.75;66.69;76812.41;4991620;28;19913;-78
2021/08/26 06:39:29;;;;;;;;;;;;;;;-142.75;67.47;76814.38;4991152;28;19921;-78
2021/08/26 06:41:55;;;;;;;;;;;;;;;-142.75;67.62;76812.41;4971993;28;19921;-79
2021/08/26 06:44:20;;;;;;;;;;;;;;;-142.75;67.34;76812.41;4972867;28;20013;-80
2021/08/26 06:46:45;;;;;;;;;;;;;;;-142.75;66.90;76810.44;5039220;28;19946;-80
2021/08/26 06:49:10;;;;;;;;;;;;;;;-142.75;66.14;76806.50;4973060;28;20286;-81
2021/08/26 06:51:35;;;;;;;;;;;;;;;-142.75;65.54;76804.53;5053370;28;19959;-80
2021/08/26 06:54:01;;;;;;;;;;;;;;;-142.75;64.34;76800.63;4984783;28;19956;-80
2021/08/26 06:56:26;;;;;;;;;;;;;;;-142.75;64.26;76784.88;5037085;28;19914;-78
2021/08/26 06:58:51;;;;;;;;;;;;;;;-142.75;64.11;76777.00;4972890;28;19922;-78
2021/08/26 07:01:16;;;;;;;;;;;;;;;-142.75;63.61;76755.34;4989213;28;19992;-77
2021/08/26 07:03:41;;;;;;;;;;;;;;;-142.75;64.26;76745.50;5056816;28;19917;-77
2021/08/26 07:06:07;;;;;;;;;;;;;;;-142.75;63.64;76743.53;4989710;28;19921;-78
2021/08/26 07:08:32;;;;;;;;;;;;;;;-142.75;62.92;76747.47;4989151;28;20009;-78
2021/08/26 07:10:57;;;;;;;;;;;;;;;-142.75;64.00;76751.41;4989052;28;19914;-79
2021/08/26 07:13:22;;;;;;;;;;;;;;;-142.75;63.64;76763.22;4989001;28;19975;-77
2021/08/26 07:15:48;;;;;;;;;;;;;;;-142.75;63.55;76763.22;4989288;28;19914;-77
2021/08/26 07:18:18;;;;;;;;;;;;;;;-142.75;64.19;76755.34;4989744;28;20412;-77
2021/08/26 07:20:43;;;;;;;;;;;;;;;-142.75;63.86;76747.47;4983574;28;19949;-78
2021/08/26 07:23:08;;;;;;;;;;;;;;;-142.75;64.56;76747.47;5054096;28;20392;-80
2021/08/26 07:25:33;;;;;;;;;;;;;;;-142.75;63.77;76745.50;5037009;28;19968;-79
2021/08/26 07:27:58;;;;;;;;;;;;;;;-142.75;64.41;76735.66;5036518;28;20013;-78
2021/08/26 07:30:23;;;;;;;;;;;;;;;-142.75;65.00;76741.56;4969889;28;20008;-77
2021/08/26 07:32:49;;;;;;;;;;;;;;;-142.75;65.03;76743.53;4969324;28;19918;-79
2021/08/26 07:35:14;;;;;;;;;;;;;;;-142.75;65.02;76763.22;4987745;28;19920;-79
2021/08/26 07:37:39;;;;;;;;;;;;;;;-142.75;65.51;76773.06;4985939;28;19925;-79
2021/08/26 07:40:05;;;;;;;;;;;;;;;-142.75;66.08;76777.00;4982703;28;20343;-79
2021/08/26 07:42:30;;;;;;;;;;;;;;;-142.75;67.05;76788.81;4981442;28;19976;-77
2021/08/26 07:45:02;;;;;;;;;;;;;;;-142.75;69.48;76822.25;4973431;28;20264;-79
2021/08/26 07:47:27;;;;;;;;;;;;;;;-142.75;72.89;76873.44;4975625;28;19917;-78
2021/08/26 07:49:52;;;;;;;;;;;;;;;-142.75;75.41;76865.56;4985135;28;19917;-79
2021/08/26 07:52:17;;;;;;;;;;;;;;;-142.75;76.51;76849.81;4975917;28;19920;-81
2021/08/26 07:54:43;;;;;;;;;;;;;;;-142.75;75.60;76804.53;5044227;28;19913;-78
2021/08/26 07:57:08;;;;;;;;;;;;;;;-142.75;76.34;76704.16;4991974;28;19924;-79
2021/08/26 07:59:33;;;;;;;;;;;;;;;-142.75;75.28;76613.59;4992379;28;19922;-78
2021/08/26 08:01:59;;;;;;;;;;;;;;;-142.75;70.09;76542.72;4992553;28;20336;-78
2021/08/26 08:04:24;;;;;;;;;;;;;;;-142.75;67.87;76503.38;4982896;28;19914;-78
2021/08/26 08:06:49;;;;;;;;;;;;;;;-142.75;64.55;76393.13;4981855;28;19914;-79
2021/08/26 08:09:14;;;;;;;;;;;;;;;-142.75;63.12;76208.09;4973002;28;19924;-81
2021/08/26 08:11:39;;;;;;;;;;;;;;;-142.75;59.83;76001.44;4972844;28;19957;-80
2021/08/26 08:14:05;;;;;;;;;;;;;;;-142.75;53.63;75826.28;4972851;28;20295;-80
2021/08/26 08:16:30;;;;;;;;;;;;;;;-142.75;49.33;75700.31;4973076;28;19976;-81
2021/08/26 08:18:56;;;;;;;;;;;;;;;-142.75;45.56;75653.09;5051257;28;19971;-79
2021/08/26 08:21:21;;;;;;;;;;;;;;;-142.75;47.71;75676.69;5043060;28;19913;-78
2021/08/26 08:23:46;;;;;;;;;;;;;;;-142.75;45.68;75594.06;4976671;28;19914;-78
2021/08/26 08:26:11;;;;;;;;;;;;;;;-142.75;44.92;75509.44;4990115;28;19936;-80
2021/08/26 08:28:37;;;;;;;;;;;;;;;-142.75;44.31;75580.28;5056577;28;19914;-80
2021/08/26 08:31:04;;;;;;;;;;;;;;;-142.75;43.75;75763.28;4987485;28;20287;-79
2021/08/26 08:33:29;;;;;;;;;;;;;;;-142.75;46.32;75962.09;4983335;28;19921;-79
2021/08/26 08:35:54;;;;;;;;;;;;;;;-142.75;49.45;76133.31;4975166;28;19917;-81
2021/08/26 08:38:20;;;;;;;;;;;;;;;-142.75;51.52;76180.56;5051566;28;19917;-80
2021/08/26 08:40:46;;;;;;;;;;;;;;;-142.75;52.03;76188.44;4981927;28;19948;-80
2021/08/26 08:43:11;;;;;;;;;;;;;;;-142.75;51.12;76166.78;4982519;28;19914;-81
2021/08/26 08:45:36;;;;;;;;;;;;;;;-142.75;51.04;76129.38;5044286;28;20302;-79
2021/08/26 08:48:04;;;;;;;;;;;;;;;-142.75;50.52;76111.66;4980505;28;19914;-79
2021/08/26 08:50:30;;;;;;;;;;;;;;;-142.75;50.11;76154.97;4985518;28;19981;-81
2021/08/26 08:52:56;;;;;;;;;;;;;;;-142.75;50.74;76133.31;4988410;28;19957;-79
2021/08/26 08:55:21;;;;;;;;;;;;;;;-142.75;50.50;76121.50;4983253;28;20534;-79
2021/08/26 08:57:47;;;;;;;;;;;;;;;-142.75;50.36;76131.34;4980715;28;19921;-79
2021/08/26 09:00:14;;;;;;;;;;;;;;;-142.75;51.05;76196.31;4992328;28;19928;-78
2021/08/26 09:02:39;;;;;;;;;;;;;;;-142.75;51.17;76212.03;4977782;28;19914;-81
2021/08/26 09:05:05;;;;;;;;;;;;;;;-142.75;52.41;76095.91;4986274;28;20323;-79
2021/08/26 09:07:31;;;;;;;;;;;;;;;-142.75;48.44;75920.75;5054846;28;19921;-80
2021/08/26 09:09:56;;;;;;;;;;;;;;;-142.75;45.70;75698.34;4982627;28;19917;-79
2021/08/26 09:12:40;;;;;;;;;;;;;;;-142.75;41.98;75688.50;5044329;28;20016;-81
2021/08/26 09:15:11;;;;;;;;;;;;;;;-142.75;43.50;75857.78;4985058;28;19971;-80
2021/08/26 09:17:36;;;;;;;;;;;;;;;-142.75;45.17;75997.50;4986629;28;19979;-81
2021/08/26 09:20:03;;;;;;;;;;;;;;;-142.75;47.52;76090.00;5048980;28;19922;-82
2021/08/26 09:22:28;;;;;;;;;;;;;;;-142.75;49.71;76174.66;4985923;28;19920;-79
2021/08/26 09:24:53;;;;;;;;;;;;;;;-142.75;51.39;76229.75;4981573;28;20435;-78
2021/08/26 09:27:31;;;;;;;;;;;;;;;-142.75;53.91;76312.44;5055230;28;19920;-78
2021/08/26 09:30:13;;;;;;;;;;;;;;;-142.75;55.27;76385.25;5050743;28;20029;-77
2021/08/26 09:33:11;;;;;;;;;;;;;;;-142.75;58.28;76467.94;4983392;28;20303;-81
2021/08/26 09:35:36;;;;;;;;;;;;;;;-142.75;61.03;76517.16;5031346;28;19921;-80
2021/08/26 09:38:03;;;;;;;;;;;;;;;-142.75;62.67;76521.09;5059604;28;20004;-79
2021/08/26 09:40:30;;;;;;;;;;;;;;;-142.75;63.32;76505.34;4993056;28;19918;-78
2021/08/26 09:43:00;;;;;;;;;;;;;;;-142.75;63.54;76464.00;4988815;28;20004;-79
2021/08/26 09:45:29;;;;;;;;;;;;;;;-142.75;63.07;76404.94;4984294;28;20543;-80
2021/08/26 09:47:57;;;;;;;;;;;;;;;-142.75;62.61;76349.81;5050187;28;19914;-79
2021/08/26 09:50:41;;;;;;;;;;;;;;;-142.75;60.44;76284.88;4990059;28;19917;-78
2021/08/26 09:53:06;;;;;;;;;;;;;;;-142.75;57.25;76275.03;5059208;28;19928;-80
2021/08/26 09:55:50;;;;;;;;;;;;;;;-142.75;55.47;76300.63;4985052;28;20271;-79
2021/08/26 09:58:16;;;;;;;;;;;;;;;-142.75;55.69;76347.84;4983009;28;20008;-80
2021/08/26 10:00:41;;;;;;;;;;;;;;;-142.75;57.47;76422.66;4972151;28;19944;-80
2021/08/26 10:03:10;;;;;;;;;;;;;;;-142.75;59.66;76446.28;5039333;28;19914;-79
2021/08/26 10:05:39;;;;;;;;;;;;;;;-142.75;60.03;76456.13;4984616;28;20361;-80
2021/08/26 10:08:06;;;;;;;;;;;;;;;-142.75;60.82;76426.59;4981061;28;19914;-79
2021/08/26 10:10:34;;;;;;;;;;;;;;;-142.75;60.68;76399.03;4985226;28;19917;-79
2021/08/26 10:13:00;;;;;;;;;;;;;;;-142.75;60.19;76359.66;4979227;28;20037;-81
2021/08/26 10:15:25;;;;;;;;;;;;;;;-142.75;57.65;76324.25;4984079;28;19917;-79
2021/08/26 10:17:51;;;;;;;;;;;;;;;-142.75;56.96;76343.94;5046233;28;20397;-80
2021/08/26 10:20:17;;;;;;;;;;;;;;;-142.75;56.66;76334.09;5056019;28;19924;-79
2021/08/26 10:22:42;;;;;;;;;;;;;;;-142.75;56.38;76310.47;4979869;28;19920;-80
2021/08/26 10:25:07;;;;;;;;;;;;;;;-142.75;56.54;76306.53;4984159;28;19914;-79
2021/08/26 10:27:33;;;;;;;;;;;;;;;-142.75;56.35;76278.97;4990185;28;19914;-79
2021/08/26 10:29:58;;;;;;;;;;;;;;;-142.75;55.05;76273.06;5042340;28;19925;-78
2021/08/26 10:32:25;;;;;;;;;;;;;;;-142.75;56.71;76294.72;4982844;28;19941;-79
2021/08/26 10:35:03;;;;;;;;;;;;;;;-142.75;57.14;76306.53;4984319;28;19922;-80
2021/08/26 10:37:28;;;;;;;;;;;;;;;-142.75;57.95;76332.13;4980225;28;19921;-80
2021/08/26 10:39:54;;;;;;;;;;;;;;;-142.75;57.01;76347.84;4991394;28;19918;-81
2021/08/26 10:42:32;;;;;;;;;;;;;;;-142.75;57.03;76365.56;4973380;28;19937;-80
2021/08/26 10:45:05;;;;;;;;;;;;;;;-142.75;57.45;76341.97;4985563;28;19913;-80
2021/08/26 10:47:49;;;;;;;;;;;;;;;-142.75;55.77;76314.41;4983838;28;19996;-81
2021/08/26 10:50:16;;;;;;;;;;;;;;;-142.75;54.71;76324.25;4979575;28;19914;-79
2021/08/26 10:53:00;;;;;;;;;;;;;;;-142.75;54.66;76330.16;5048854;28;19914;-80
2021/08/26 10:55:31;;;;;;;;;;;;;;;-142.75;55.17;76324.25;5039388;28;20294;-80
2021/08/26 10:58:16;;;;;;;;;;;;;;;-142.75;55.38;76330.16;4975541;28;19922;-81
2021/08/26 11:00:42;;;;;;;;;;;;;;;-142.75;55.20;76349.81;5057809;28;20008;-78
2021/08/26 11:03:08;;;;;;;;;;;;;;;-142.75;55.32;76381.31;4991329;28;19921;-78
2021/08/26 11:05:37;;;;;;;;;;;;;;;-142.75;56.25;76412.81;4986496;28;19914;-79
2021/08/26 11:08:25;;;;;;;;;;;;;;;-142.75;56.34;76458.09;4977053;28;19913;-80
2021/08/26 11:10:50;;;;;;;;;;;;;;;-142.75;57.35;76471.88;4989233;28;19945;-79
2021/08/26 11:13:25;;;;;;;;;;;;;;;-142.75;58.53;76452.19;5043511;28;19914;-80
2021/08/26 11:15:50;;;;;;;;;;;;;;;-142.75;57.35;76446.28;4977384;28;20478;-79
2021/08/26 11:18:25;;;;;;;;;;;;;;;-142.75;57.88;76440.38;4971114;28;19918;-78
2021/08/26 11:20:51;;;;;;;;;;;;;;;-142.75;58.94;76440.38;5036173;28;19918;-79
2021/08/26 11:23:17;;;;;;;;;;;;;;;-142.75;59.97;76428.56;4972450;28;19936;-78
2021/08/26 11:25:42;;;;;;;;;;;;;;;-142.75;59.69;76420.69;4975485;28;19958;-79
2021/08/26 11:28:26;;;;;;;;;;;;;;;-142.75;59.23;76440.38;4971285;28;19914;-78
2021/08/26 11:30:51;;;;;;;;;;;;;;;-142.75;59.56;76452.19;5003274;22;19922;-79
2021/08/26 11:33:26;;;;;;;;;;;;;;;-142.75;58.68;76444.31;4979637;28;19925;-80
2021/08/26 11:35:52;;;;;;;;;;;;;;;-142.75;57.82;76448.25;4980627;28;19920;-80
2021/08/26 11:38:17;;;;;;;;;;;;;;;-142.75;59.82;76460.06;4980676;28;19918;-79
2021/08/26 11:40:42;;;;;;;;;;;;;;;-142.75;60.67;76460.06;4964188;28;19918;-82
2021/08/26 11:43:07;;;;;;;;;;;;;;;-142.75;60.68;76446.28;4989025;28;19920;-79
2021/08/26 11:45:34;;;;;;;;;;;;;;;-142.75;59.98;76424.63;4989315;28;19999;-80
2021/08/26 11:48:00;;;;;;;;;;;;;;;-142.75;60.16;76422.66;4989106;28;20020;-80
2021/08/26 11:50:27;;;;;;;;;;;;;;;-142.75;58.80;76444.31;4971256;28;19996;-79
2021/08/26 11:52:54;;;;;;;;;;;;;;;-142.75;58.32;76418.72;4971975;28;19932;-81
2021/08/26 11:55:21;;;;;;;;;;;;;;;-142.75;57.78;76402.97;4988844;28;20302;-80
2021/08/26 11:57:52;;;;;;;;;;;;;;;-142.75;57.70;76389.19;4988827;28;19926;-78
2021/08/26 12:00:17;;;;;;;;;;;;;;;-142.75;57.90;76383.28;4972606;28;19918;-80
2021/08/26 12:02:48;;;;;;;;;;;;;;;-142.75;56.70;76365.56;4971278;28;20295;-78
2021/08/26 12:05:14;;;;;;;;;;;;;;;-142.75;56.01;76369.50;4988663;28;19914;-80
2021/08/26 12:07:42;;;;;;;;;;;;;;;-142.75;55.32;76391.16;4989971;28;20329;-80
2021/08/26 12:10:18;;;;;;;;;;;;;;;-142.75;57.07;76426.59;4988881;28;19920;-79
2021/08/26 12:12:59;;;;;;;;;;;;;;;-142.75;57.87;76422.66;4989058;28;20007;-79
2021/08/26 12:15:26;;;;;;;;;;;;;;;-142.75;58.65;76399.03;4989260;28;19920;-79
2021/08/26 12:17:56;;;;;;;;;;;;;;;-142.75;57.09;76393.13;4971472;28;19940;-79
2021/08/26 12:20:21;;;;;;;;;;;;;;;-142.75;56.43;76357.69;4991348;28;19921;-79
2021/08/26 12:22:48;;;;;;;;;;;;;;;-142.75;55.18;76345.91;4993285;28;20020;-77
2021/08/26 12:25:18;;;;;;;;;;;;;;;-142.75;55.90;76304.56;4973472;28;19936;-79
2021/08/26 12:27:48;;;;;;;;;;;;;;;-142.75;55.75;76296.69;4973139;28;19959;-80